Time;durP1;ratioP1;P1;durP2;ratioP2;P2;SDS_P1;SDS_P2;PMS_P1;PMS_P2;Temp;Humidity;BMP_temperature;BMP_pressure;BME280_temperature;BME280_humidity;BME280_pressure;Samples;Min_cycle;Max_cycle;Signal;HPM_P1;HPM_P2
2022/01/12 00:01:33;;;;;;;25.00;14.93;;;;;;;-2.28;62.43;100940.16;5088820;28;20048;-65
2022/01/12 00:04:07;;;;;;;25.27;14.13;;;;;;;-2.26;62.37;100946.25;5088755;28;20243;-65
2022/01/12 00:06:39;;;;;;;21.58;13.57;;;;;;;-2.26;62.32;100938.47;5088315;28;20048;-65
2022/01/12 00:09:13;;;;;;;21.00;13.43;;;;;;;-2.41;62.75;100945.06;5088391;28;20067;-65
2022/01/12 00:11:45;;;;;;;27.85;15.20;;;;;;;-2.47;62.82;100941.47;5087508;28;20048;-65
2022/01/12 00:14:17;;;;;;;27.90;16.77;;;;;;;-2.44;62.73;100939.81;5088269;28;20290;-65
2022/01/12 00:16:51;;;;;;;21.70;13.23;;;;;;;-2.41;62.91;100945.06;5088358;28;20048;-65
2022/01/12 00:19:24;;;;;;;21.67;12.85;;;;;;;-2.38;62.65;100945.13;5087708;28;20044;-66
2022/01/12 00:21:55;;;;;;;20.65;12.95;;;;;;;-2.37;62.80;100946.88;5087398;28;20066;-65
2022/01/12 00:24:38;;;;;;;24.63;14.88;;;;;;;-2.41;62.75;100946.78;5088393;28;20039;-65
2022/01/12 00:33:10;;;;;;;25.60;15.07;;;;;;;-2.47;62.77;100949.25;5087953;28;20041;-65
2022/01/12 00:35:44;;;;;;;24.88;13.00;;;;;;;-2.44;63.02;100951.91;5088168;28;20048;-65
2022/01/12 00:38:18;;;;;;;24.03;15.03;;;;;;;-2.50;63.10;100957.84;5088178;28;20311;-66
2022/01/12 00:40:54;;;;;;;24.83;15.32;;;;;;;-2.55;63.13;100964.66;5087822;28;20048;-66
2022/01/12 00:43:29;;;;;;;27.40;15.40;;;;;;;-2.54;63.02;100974.19;5087732;28;20212;-65
2022/01/12 00:46:01;;;;;;;24.92;13.63;;;;;;;-2.57;63.10;100974.13;5087672;28;20044;-66
2022/01/12 00:48:36;;;;;;;22.15;16.05;;;;;;;-3.68;62.99;100828.69;5087738;28;20066;-65
2022/01/12 00:51:10;;;;;;;25.38;13.90;;;;;;;-2.56;63.20;100975.00;5087674;28;20201;-65
2022/01/12 00:53:43;;;;;;;23.52;14.73;;;;;;;-2.53;63.03;100967.28;5087625;28;20079;-65
2022/01/12 00:56:17;;;;;;;24.27;15.48;;;;;;;-2.54;62.87;100974.19;5087822;28;20045;-65
2022/01/12 00:58:50;;;;;;;23.40;14.25;;;;;;;-2.52;63.05;100980.28;5087492;28;20044;-65
2022/01/12 01:01:22;;;;;;;25.58;15.65;;;;;;;-2.49;62.82;100979.50;5087453;28;20047;-67
2022/01/12 01:03:55;;;;;;;26.75;14.98;;;;;;;-2.84;63.04;100919.84;5087631;28;20289;-66
2022/01/12 01:06:28;;;;;;;24.75;15.55;;;;;;;-2.51;63.10;100984.66;5087324;28;20315;-66
2022/01/12 01:09:00;;;;;;;23.17;13.50;;;;;;;-2.49;62.89;100988.16;5087595;28;20060;-66
2022/01/12 01:11:34;;;;;;;23.15;13.35;;;;;;;-2.53;62.97;100991.53;5087259;28;20040;-66
2022/01/12 01:14:15;;;;;;;23.88;16.33;;;;;;;-2.55;62.97;101000.13;5086403;28;20060;-65
2022/01/12 01:16:55;;;;;;;24.85;14.07;;;;;;;-2.58;63.14;100989.66;5087355;28;20044;-66
2022/01/12 01:27:56;;;;;;;23.92;14.98;;;;;;;-3.09;63.26;100926.16;5087175;28;20287;-65
2022/01/12 01:30:30;;;;;;;24.95;16.92;;;;;;;-2.73;63.29;100985.84;5086864;28;20048;-66
2022/01/12 01:33:06;;;;;;;26.33;16.35;;;;;;;-3.32;63.45;100880.63;5087108;28;20048;-66
2022/01/12 01:35:44;;;;;;;24.98;16.05;;;;;;;-2.77;63.49;100986.63;5086781;28;20040;-66
2022/01/12 01:38:16;;;;;;;24.55;14.77;;;;;;;-2.79;63.49;100985.69;5086996;28;20040;-66
2022/01/12 01:40:49;;;;;;;25.15;15.07;;;;;;;-2.71;63.45;100985.88;5086960;28;20064;-66
2022/01/12 01:43:38;;;;;;;26.45;15.82;;;;;;;-2.71;63.44;100986.75;5086864;28;20041;-66
2022/01/12 01:54:40;;;;;;;28.80;18.08;;;;;;;-2.84;63.81;100999.41;5086186;28;20056;-66
2022/01/12 01:57:12;;;;;;;25.38;15.25;;;;;;;-2.85;63.65;100997.66;5086359;28;20044;-66
2022/01/12 01:59:46;;;;;;;26.83;14.75;;;;;;;-2.86;63.80;101001.09;5086256;28;20240;-66
2022/01/12 02:02:18;;;;;;;22.10;12.57;;;;;;;-2.89;63.66;100995.81;5086492;28;20051;-66
2022/01/12 02:04:50;;;;;;;24.73;15.48;;;;;;;-2.95;63.55;100999.13;5085442;28;20040;-66
2022/01/12 02:07:24;;;;;;;21.92;15.13;;;;;;;-2.96;63.41;100999.97;5086355;28;20044;-66
2022/01/12 02:09:56;;;;;;;23.35;14.45;;;;;;;-3.04;63.72;100998.91;5085993;28;20040;-66
2022/01/12 02:12:29;;;;;;;23.17;13.65;;;;;;;-3.01;63.86;100993.78;5086046;28;20285;-66
2022/01/12 02:15:13;;;;;;;25.42;14.68;;;;;;;-3.03;63.90;100988.56;5086294;28;20040;-66
2022/01/12 02:18:01;;;;;;;23.95;15.60;;;;;;;-3.08;63.90;100984.97;5085230;28;20204;-66
2022/01/12 02:35:20;;;;;;;24.75;14.23;;;;;;;-3.19;63.98;100995.91;5085758;28;20040;-66
2022/01/12 02:40:49;;;;;;;25.85;16.08;;;;;;;-3.14;64.04;101004.69;5085695;28;20041;-65
2022/01/12 02:43:38;;;;;;;28.88;15.98;;;;;;;-3.17;63.97;101002.88;5085948;28;20044;-65
2022/01/12 02:54:39;;;;;;;26.83;13.88;;;;;;;-3.11;63.92;100989.19;5085262;28;20312;-66
2022/01/12 02:57:13;;;;;;;25.08;14.23;;;;;;;-3.10;63.79;100999.63;5085502;28;20044;-66
2022/01/12 03:00:01;;;;;;;24.33;14.52;;;;;;;-3.74;63.81;100934.78;5085474;28;20040;-66
2022/01/12 03:02:37;;;;;;;25.17;16.02;;;;;;;-3.15;63.94;101006.41;5085694;28;20040;-66
2022/01/12 03:05:30;;;;;;;25.25;14.18;;;;;;;-3.09;63.64;101001.38;5084963;28;20078;-66
2022/01/12 03:08:11;;;;;;;23.27;14.68;;;;;;;-3.05;63.72;101010.13;5085600;28;20051;-66
2022/01/12 03:10:44;;;;;;;24.50;15.10;;;;;;;-3.36;63.80;100946.19;5085694;28;20205;-66
2022/01/12 03:13:18;;;;;;;22.88;14.65;;;;;;;-3.08;63.76;101003.13;5085358;28;20052;-66
2022/01/12 03:15:50;;;;;;;25.00;13.97;;;;;;;-3.05;63.83;100995.44;5085642;28;20040;-66
2022/01/12 03:18:22;;;;;;;22.50;13.30;;;;;;;-3.06;63.85;100997.97;5085280;28;20051;-66
2022/01/12 03:20:55;;;;;;;27.48;14.13;;;;;;;-3.06;63.84;100993.66;5085541;28;20041;-66
2022/01/12 03:23:27;;;;;;;26.23;14.48;;;;;;;-3.08;63.76;100984.97;5089587;28;20292;-66
2022/01/12 03:26:00;;;;;;;25.23;16.13;;;;;;;-3.08;63.83;100984.09;5089578;28;20040;-66
2022/01/12 03:28:34;;;;;;;25.80;14.20;;;;;;;-3.11;63.74;100986.59;5089227;28;20052;-66
2022/01/12 03:31:10;;;;;;;28.40;15.18;;;;;;;-3.20;63.96;100987.25;5089475;28;20040;-66
2022/01/12 03:36:41;;;;;;;24.10;15.77;;;;;;;-3.19;64.12;100991.59;5088512;28;20053;-66
2022/01/12 03:39:15;;;;;;;24.95;15.20;;;;;;;-3.24;64.33;100988.00;5089356;28;20041;-66
2022/01/12 03:41:48;;;;;;;29.45;18.02;;;;;;;-3.21;64.20;100992.41;5088965;28;20043;-66
2022/01/12 03:44:18;;;;;;;30.10;16.95;;;;;;;-3.18;64.11;100992.47;5088870;28;20052;-66
2022/01/12 03:46:51;;;;;;;25.23;16.13;;;;;;;-3.23;63.95;100987.16;5089100;28;20047;-66
2022/01/12 03:49:22;;;;;;;24.65;16.52;;;;;;;-3.35;64.47;100984.25;5089118;28;20048;-66
2022/01/12 03:51:52;;;;;;;27.50;16.85;;;;;;;-3.34;64.32;100986.00;5088200;28;20048;-66
2022/01/12 03:54:23;;;;;;;25.27;15.00;;;;;;;-3.81;64.40;100914.72;5089051;28;20053;-66
2022/01/12 03:56:54;;;;;;;24.75;14.90;;;;;;;-3.59;64.28;100945.59;5087924;28;20052;-66
2022/01/12 03:59:24;;;;;;;28.48;17.80;;;;;;;-3.41;64.57;100989.28;5088555;28;20047;-66
2022/01/12 04:01:53;;;;;;;25.80;15.27;;;;;;;-3.42;64.53;101000.47;5088643;28;20056;-66
2022/01/12 04:04:31;;;;;;;24.30;14.65;;;;;;;-3.41;64.56;100997.94;5088538;28;20208;-66
2022/01/12 04:09:54;;;;;;;22.48;14.85;;;;;;;-3.39;64.34;100997.97;5088674;28;20040;-65
2022/01/12 04:12:28;;;;;;;25.83;15.80;;;;;;;-3.42;64.30;100998.75;5088405;28;20051;-66
2022/01/12 04:15:02;;;;;;;25.73;15.68;;;;;;;-3.44;64.43;100991.78;5088636;28;20200;-66
2022/01/12 04:17:34;;;;;;;25.27;15.85;;;;;;;-3.96;64.38;100939.34;5088299;28;20182;-66
2022/01/12 04:20:07;;;;;;;23.23;15.73;;;;;;;-3.44;64.63;100986.59;5088541;28;20220;-66
2022/01/12 04:25:29;;;;;;;26.15;15.52;;;;;;;-3.46;64.82;100983.97;5087342;28;20040;-66
2022/01/12 04:28:02;;;;;;;26.05;17.80;;;;;;;-3.46;64.55;100980.50;5087568;28;20040;-66
2022/01/12 04:30:35;;;;;;;24.55;14.68;;;;;;;-3.66;64.74;100952.28;5088327;28;20040;-66
2022/01/12 04:33:08;;;;;;;25.98;16.85;;;;;;;-3.47;64.80;100989.97;5087323;28;20044;-66
2022/01/12 04:35:46;;;;;;;29.42;17.40;;;;;;;-3.49;64.56;100985.59;5087894;28;20040;-66
2022/01/12 04:38:21;;;;;;;25.17;16.55;;;;;;;-3.55;64.83;100988.91;5088158;28;20200;-66
2022/01/12 04:40:53;;;;;;;;;;;;;;;-3.60;65.32;100987.88;5088649;28;20040;-66
2022/01/12 04:43:26;;;;;;;25.45;15.02;;;;;;;-3.63;65.12;100993.81;5087835;28;19916;-66
2022/01/12 04:46:22;;;;;;;26.48;16.60;;;;;;;-3.65;64.91;100989.44;5087994;28;20060;-66
2022/01/12 04:49:09;;;;;;;28.10;16.42;;;;;;;-3.67;64.95;101001.47;5087612;28;20040;-66
2022/01/12 04:51:42;;;;;;;27.55;16.33;;;;;;;-3.77;65.40;101002.94;5087660;28;20036;-66
2022/01/12 04:54:14;;;;;;;30.65;18.85;;;;;;;-3.74;65.24;101004.72;5087548;28;20056;-66
2022/01/12 04:56:44;;;;;;;28.60;16.08;;;;;;;-3.79;65.39;101007.19;5087513;28;20040;-65
2022/01/12 04:59:14;;;;;;;28.35;17.55;;;;;;;-3.76;65.22;101006.41;5087310;28;20024;-66
2022/01/12 05:01:52;;;;;;;33.35;17.40;;;;;;;-3.80;65.33;100999.38;5087705;28;20036;-66
2022/01/12 05:07:27;;;;;;;24.70;16.08;;;;;;;-3.80;65.09;101002.84;5087590;28;20284;-65
2022/01/12 05:12:52;;;;;;;26.90;14.50;;;;;;;-3.78;65.02;101013.25;5087476;28;20059;-65
2022/01/12 05:15:31;;;;;;;29.85;18.02;;;;;;;-3.83;65.06;101007.94;5087394;28;20045;-66
2022/01/12 05:18:05;;;;;;;27.77;19.38;;;;;;;-3.92;65.46;101015.44;5087343;28;20045;-66
2022/01/12 05:20:38;;;;;;;27.65;16.17;;;;;;;-4.02;65.45;101016.00;5087375;28;20041;-66
2022/01/12 05:23:10;;;;;;;28.88;16.40;;;;;;;-3.99;65.41;101019.56;5087263;28;20040;-66
2022/01/12 05:25:46;;;;;;;31.08;18.35;;;;;;;-3.96;65.64;101014.47;5087236;28;20044;-66
2022/01/12 05:28:18;;;;;;;23.92;15.63;;;;;;;-3.96;65.89;101011.00;5087152;28;20289;-66
2022/01/12 05:30:51;;;;;;;26.65;16.42;;;;;;;-4.29;65.82;100966.84;5086844;28;20054;-66
2022/01/12 05:33:26;;;;;;;27.65;16.98;;;;;;;-4.04;66.09;101022.84;5086781;28;20040;-66
2022/01/12 05:36:00;;;;;;;;;;;;;;;-4.09;66.34;101030.47;5087494;28;20300;-65
2022/01/12 05:38:34;;;;;;;27.25;15.05;;;;;;;-4.02;65.58;101031.53;5086997;28;19916;-66
2022/01/12 05:41:07;;;;;;;24.05;13.25;;;;;;;-4.00;65.71;101029.88;5086841;28;20040;-65
2022/01/12 05:43:41;;;;;;;28.83;17.25;;;;;;;-4.01;65.71;101038.47;5086508;28;20036;-66
2022/01/12 05:46:14;;;;;;;22.17;15.43;;;;;;;-4.05;65.80;101044.38;5085066;28;20040;-66
2022/01/12 05:51:38;;;;;;;24.90;15.13;;;;;;;-4.06;65.81;101038.31;5086428;28;20040;-66
2022/01/12 05:54:10;;;;;;;26.27;15.93;;;;;;;-4.04;65.66;101038.38;5086355;28;20045;-66
2022/01/12 05:56:40;;;;;;;25.05;16.17;;;;;;;-4.09;65.68;101045.13;5086470;28;20029;-66
2022/01/12 05:59:11;;;;;;;26.50;16.13;;;;;;;-4.13;65.84;101044.16;5086405;28;20052;-65
2022/01/12 06:01:41;;;;;;;24.77;14.63;;;;;;;-4.14;66.16;101055.34;5086437;28;20047;-66
2022/01/12 06:04:12;;;;;;;29.02;17.50;;;;;;;-4.15;66.38;101051.00;5086387;28;20049;-66
2022/01/12 06:06:41;;;;;;;27.42;16.40;;;;;;;-4.17;66.48;101065.59;5086373;28;20041;-66
2022/01/12 06:09:11;;;;;;;25.92;16.63;;;;;;;-4.12;65.84;101055.38;5085512;28;20044;-66
2022/01/12 06:11:41;;;;;;;25.40;16.13;;;;;;;-4.13;66.24;101064.88;5086283;28;20048;-66
2022/01/12 06:14:17;;;;;;;26.63;16.13;;;;;;;-4.08;66.03;101063.31;5085979;28;20052;-66
2022/01/12 06:16:50;;;;;;;30.77;17.65;;;;;;;-4.04;66.26;101062.56;5086042;28;20082;-66
2022/01/12 06:19:19;;;;;;;25.75;15.27;;;;;;;-4.04;66.21;101061.69;5086139;28;20052;-66
2022/01/12 06:21:48;;;;;;;29.65;18.02;;;;;;;-4.01;66.17;101065.25;5085700;28;20044;-66
2022/01/12 06:24:19;;;;;;;30.98;17.90;;;;;;;-4.00;66.05;101068.72;5085969;28;20082;-66
2022/01/12 06:26:48;;;;;;;29.45;17.65;;;;;;;-3.97;66.11;101064.50;5086342;28;20037;-66
2022/01/12 06:32:05;;;;;;;29.23;14.85;;;;;;;-3.99;66.58;101071.34;5085399;28;20048;-67
2022/01/12 06:34:39;;;;;;;23.08;15.02;;;;;;;-3.94;66.38;101082.72;5086041;28;20048;-67
2022/01/12 06:37:12;;;;;;;28.13;16.23;;;;;;;-3.99;66.56;101080.84;5085625;28;20040;-67
2022/01/12 06:39:44;;;;;;;30.33;16.98;;;;;;;-3.99;66.35;101080.84;5085900;28;20045;-66
2022/01/12 06:42:16;;;;;;;31.77;16.90;;;;;;;-3.97;66.20;101080.03;5085585;28;20067;-66
2022/01/12 06:44:49;;;;;;;27.88;18.08;;;;;;;-4.01;66.48;101082.50;5085537;28;20040;-67
2022/01/12 06:47:21;;;;;;;25.38;14.70;;;;;;;-3.93;66.16;101086.19;5085422;28;20040;-66
2022/01/12 06:49:54;;;;;;;26.63;14.20;;;;;;;-3.89;66.08;101082.88;5085452;28;20111;-66
2022/01/12 06:52:27;;;;;;;28.35;17.00;;;;;;;-3.94;66.11;101084.44;5084882;28;20040;-66
2022/01/12 06:55:00;;;;;;;24.83;17.05;;;;;;;-3.97;66.38;101086.94;5085144;28;20339;-67
2022/01/12 06:57:33;;;;;;;26.88;15.48;;;;;;;-3.94;66.53;101092.22;5085027;28;20040;-67
2022/01/12 07:00:07;;;;;;;27.80;17.38;;;;;;;-3.88;66.34;101092.41;5084800;28;20044;-66
2022/01/12 07:02:40;;;;;;;33.60;18.40;;;;;;;-3.87;66.26;101096.75;5085390;28;20041;-66
2022/01/12 07:05:13;;;;;;;27.33;16.10;;;;;;;-4.11;66.49;101059.75;5085306;28;20041;-64
2022/01/12 07:07:46;;;;;;;27.17;16.15;;;;;;;-3.79;65.93;101112.53;5085231;28;20040;-65
2022/01/12 07:10:18;;;;;;;27.90;16.58;;;;;;;-3.78;65.72;101109.97;5085262;28;20036;-65
2022/01/12 07:12:50;;;;;;;26.55;15.90;;;;;;;-4.03;65.96;101058.25;5085179;28;20043;-65
2022/01/12 07:15:23;;;;;;;28.63;16.52;;;;;;;-3.69;65.79;101115.44;5085143;28;20041;-65
2022/01/12 07:17:55;;;;;;;25.08;16.40;;;;;;;-3.65;65.69;101112.13;5085309;28;20047;-65
2022/01/12 07:20:29;;;;;;;23.38;14.30;;;;;;;-3.57;65.50;101124.47;5085142;28;20041;-66
2022/01/12 07:23:01;;;;;;;30.73;15.77;;;;;;;-3.58;66.00;101133.06;5085401;28;20037;-65
2022/01/12 07:25:34;;;;;;;25.42;16.40;;;;;;;-3.59;65.70;101129.59;5085315;28;20059;-65
2022/01/12 07:28:06;;;;;;;33.47;18.27;;;;;;;-3.57;65.67;101127.03;5084968;28;20040;-65
2022/01/12 07:30:39;;;;;;;26.00;15.05;;;;;;;-3.58;65.60;101133.94;5084559;28;20040;-65
2022/01/12 07:33:12;;;;;;;22.67;14.52;;;;;;;-3.55;65.47;101140.94;5085012;28;20040;-65
2022/01/12 07:35:46;;;;;;;24.77;15.50;;;;;;;-3.49;65.68;101143.72;5084998;28;20310;-65
2022/01/12 07:38:18;;;;;;;27.42;15.80;;;;;;;-3.43;65.87;101143.88;5084841;28;20216;-65
2022/01/12 07:40:51;;;;;;;27.92;16.70;;;;;;;-3.41;65.59;101156.06;5084797;28;20319;-65
2022/01/12 07:43:23;;;;;;;31.15;16.88;;;;;;;-4.56;65.33;100957.41;5085220;28;20047;-66
2022/01/12 07:45:56;;;;;;;27.55;14.57;;;;;;;-4.10;65.37;101035.59;5084764;28;20048;-65
2022/01/12 07:48:28;;;;;;;25.38;17.13;;;;;;;-3.37;65.28;101164.81;5084613;28;20048;-65
2022/01/12 07:51:02;;;;;;;24.05;14.63;;;;;;;-3.39;65.31;101163.88;5084912;28;20047;-65
2022/01/12 07:53:34;;;;;;;24.38;15.68;;;;;;;-3.40;65.22;101168.19;5084658;28;20060;-66
2022/01/12 07:56:07;;;;;;;23.10;14.38;;;;;;;-3.65;65.09;101116.41;5084105;28;20041;-65
2022/01/12 07:58:39;;;;;;;26.20;15.60;;;;;;;-4.35;64.97;100988.25;5084766;28;20300;-65
2022/01/12 08:01:13;;;;;;;22.67;14.68;;;;;;;-3.23;64.88;101196.34;5084767;28;20041;-65
2022/01/12 08:03:45;;;;;;;28.13;18.15;;;;;;;-3.20;65.09;101183.47;5084734;28;20040;-65
2022/01/12 08:06:20;;;;;;;21.88;15.05;;;;;;;-3.47;64.77;101131.66;5084783;28;20297;-66
2022/01/12 08:08:53;;;;;;;25.00;15.02;;;;;;;-3.13;64.92;101207.03;5086214;28;20059;-65
2022/01/12 08:11:25;;;;;;;24.70;14.38;;;;;;;-3.16;64.91;101175.81;5088347;28;20040;-65
2022/01/12 08:13:57;;;;;;;27.70;15.65;;;;;;;-3.16;64.82;101188.78;5088373;28;20040;-65
2022/01/12 08:16:30;;;;;;;25.15;16.73;;;;;;;-3.17;64.88;101184.44;5088264;28;20036;-65
2022/01/12 08:19:02;;;;;;;24.38;14.93;;;;;;;-3.42;65.00;101140.47;5088107;28;20044;-65
2022/01/12 08:21:36;;;;;;;24.48;14.25;;;;;;;-3.07;64.71;101195.94;5088214;28;20041;-65
2022/01/12 08:24:09;;;;;;;21.40;14.10;;;;;;;-3.09;64.79;101195.03;5088286;28;20040;-65
2022/01/12 08:26:42;;;;;;;26.45;16.65;;;;;;;-3.06;64.77;101196.00;5087985;28;20045;-65
2022/01/12 08:29:16;;;;;;;23.40;15.05;;;;;;;-3.86;64.43;101108.00;5087902;28;20209;-65
2022/01/12 08:31:45;;;;;;;23.83;14.57;;;;;;;-2.99;64.39;101189.28;5087829;28;20243;-65
2022/01/12 08:34:15;;;;;;;23.75;15.50;;;;;;;-3.02;64.62;101192.66;5087876;28;20040;-65
2022/01/12 08:36:46;;;;;;;21.63;15.63;;;;;;;-2.96;64.56;101203.22;5088435;28;20288;-66
2022/01/12 08:39:15;;;;;;;21.08;15.40;;;;;;;-2.97;64.47;101209.22;5087158;28;20040;-65
2022/01/12 08:41:45;;;;;;;29.40;15.25;;;;;;;-2.93;64.38;101209.31;5088136;28;20086;-66
2022/01/12 08:44:15;;;;;;;31.30;16.15;;;;;;;-2.92;64.26;101208.47;5088075;28;20170;-66
2022/01/12 08:46:45;;;;;;;27.20;15.75;;;;;;;-2.90;64.49;101205.09;5087631;28;20288;-66
2022/01/12 08:49:15;;;;;;;29.27;16.42;;;;;;;-2.91;64.12;101216.31;5087567;28;20209;-66
2022/01/12 08:51:47;;;;;;;24.00;14.88;;;;;;;-2.89;64.15;101205.97;5087442;28;20220;-66
2022/01/12 08:54:15;;;;;;;25.20;16.33;;;;;;;-2.83;64.11;101213.94;5087209;28;20186;-66
2022/01/12 08:56:46;;;;;;;22.58;14.60;;;;;;;-2.85;63.98;101215.59;5087285;28;20063;-66
2022/01/12 08:59:17;;;;;;;25.98;15.85;;;;;;;-2.91;64.01;101213.72;5087007;28;20056;-66
2022/01/12 09:01:46;;;;;;;22.15;12.80;;;;;;;-2.88;64.06;101226.78;5087403;28;20055;-66
2022/01/12 09:04:16;;;;;;;24.40;14.02;;;;;;;-3.19;63.70;101170.53;5087337;28;20041;-66
2022/01/12 09:06:48;;;;;;;25.13;14.73;;;;;;;-4.81;63.37;100912.63;5087079;28;20036;-66
2022/01/12 09:09:16;;;;;;;23.58;13.95;;;;;;;-2.86;63.76;101225.09;5086334;28;20047;-67
2022/01/12 09:11:46;;;;;;;23.38;14.15;;;;;;;-3.59;63.70;101134.78;5087187;28;20041;-67
2022/01/12 09:14:16;;;;;;;25.65;16.13;;;;;;;-2.85;63.80;101223.38;5087169;28;20036;-67
2022/01/12 09:16:52;;;;;;;22.95;13.95;;;;;;;-2.81;63.45;101227.84;5086938;28;20044;-67
2022/01/12 09:19:22;;;;;;;23.05;14.38;;;;;;;-2.84;63.24;101238.13;5086644;28;20086;-67
2022/01/12 09:21:53;;;;;;;21.75;14.68;;;;;;;-2.90;63.57;101232.75;5086302;28;20041;-67
2022/01/12 09:24:22;;;;;;;26.65;15.85;;;;;;;-2.86;63.52;101234.59;5086746;28;20040;-67
2022/01/12 09:26:52;;;;;;;22.27;14.85;;;;;;;-2.88;63.55;101231.09;5086931;28;20040;-67
2022/01/12 09:29:23;;;;;;;27.13;15.82;;;;;;;-2.89;63.51;101227.63;5085911;28;20040;-67
2022/01/12 09:31:53;;;;;;;23.95;13.50;;;;;;;-3.09;63.73;101174.28;5086606;28;20051;-66
2022/01/12 09:34:22;;;;;;;23.23;13.93;;;;;;;-2.88;63.46;101219.00;5086678;28;20098;-66
2022/01/12 09:36:54;;;;;;;24.50;13.00;;;;;;;-2.85;63.33;101213.00;5086730;28;20106;-66
2022/01/12 09:39:22;;;;;;;22.42;13.95;;;;;;;-2.79;63.59;101213.19;5086786;28;20055;-66
2022/01/12 09:41:53;;;;;;;22.92;14.40;;;;;;;-2.83;63.47;101213.94;5086204;28;20040;-66
2022/01/12 09:44:30;;;;;;;24.80;14.43;;;;;;;-2.87;63.81;101212.09;5086132;28;20260;-67
2022/01/12 09:47:04;;;;;;;22.67;13.05;;;;;;;-2.85;63.72;101206.09;5086117;28;20044;-66
2022/01/12 09:49:37;;;;;;;28.15;17.67;;;;;;;-2.84;63.67;101199.19;5086057;28;20048;-66
2022/01/12 09:52:11;;;;;;;29.02;16.08;;;;;;;-2.83;63.85;101199.25;5086147;28;20043;-66
2022/01/12 09:54:44;;;;;;;23.98;15.45;;;;;;;-2.79;63.55;101200.22;5086001;28;20305;-66
2022/01/12 09:57:16;;;;;;;25.95;14.10;;;;;;;-2.74;63.60;101201.22;5085284;28;20189;-66
2022/01/12 09:59:48;;;;;;;23.83;14.13;;;;;;;-2.71;63.66;101198.72;5086064;28;20056;-66
2022/01/12 10:02:22;;;;;;;26.77;15.45;;;;;;;-2.72;63.45;101207.34;5084937;28;20040;-66
2022/01/12 10:05:01;;;;;;;24.95;14.98;;;;;;;-3.79;63.73;101060.72;5085930;28;20040;-66
2022/01/12 10:07:36;;;;;;;22.08;13.70;;;;;;;-2.75;63.65;101192.56;5085882;28;20041;-66
2022/01/12 10:10:14;;;;;;;22.75;13.27;;;;;;;-2.74;63.77;101183.94;5085681;28;20045;-66
2022/01/12 10:12:53;;;;;;;22.23;13.90;;;;;;;-2.72;63.93;101182.25;5085829;28;20037;-66
2022/01/12 10:15:29;;;;;;;24.08;15.80;;;;;;;-2.65;63.71;101178.13;5085792;28;20182;-66
2022/01/12 10:18:02;;;;;;;24.60;15.48;;;;;;;-2.63;63.76;101174.72;5085745;28;20055;-65
2022/01/12 10:20:44;;;;;;;25.58;15.52;;;;;;;-2.60;63.86;101173.94;5084995;28;20044;-66
2022/01/12 10:23:24;;;;;;;24.90;14.75;;;;;;;-2.58;63.63;101169.66;5085668;28;20037;-66
2022/01/12 10:25:57;;;;;;;27.20;14.70;;;;;;;-2.60;63.69;101166.13;5084801;28;20040;-67
2022/01/12 10:28:29;;;;;;;23.00;15.73;;;;;;;-2.56;64.01;101167.97;5085479;28;20185;-66
2022/01/12 10:31:03;;;;;;;22.20;14.55;;;;;;;-2.51;63.78;101165.50;5084805;28;20040;-66
2022/01/12 10:33:35;;;;;;;26.17;17.23;;;;;;;-2.50;63.67;101164.66;5085770;28;20289;-66
2022/01/12 10:36:08;;;;;;;28.85;14.93;;;;;;;-2.47;63.81;101156.94;5085428;28;20040;-66
2022/01/12 10:38:41;;;;;;;26.10;14.52;;;;;;;-2.41;63.97;101165.78;5084470;28;20036;-65
2022/01/12 10:41:16;;;;;;;27.48;16.02;;;;;;;-2.40;63.54;101162.34;5085388;28;20044;-65
2022/01/12 10:43:48;;;;;;;23.35;14.77;;;;;;;-2.38;63.58;101154.59;5085130;28;20040;-65
2022/01/12 10:46:25;;;;;;;28.90;16.13;;;;;;;-2.32;63.43;101157.34;5085427;28;20040;-66
2022/01/12 10:49:00;;;;;;;27.17;17.00;;;;;;;-2.28;63.44;101158.31;5085208;28;20040;-65
2022/01/12 10:51:33;;;;;;;23.05;14.77;;;;;;;-2.24;63.39;101147.16;5085192;28;20289;-66
2022/01/12 10:54:08;;;;;;;22.02;13.18;;;;;;;-2.52;63.33;101109.22;5085158;28;20048;-65
2022/01/12 10:56:41;;;;;;;22.27;12.65;;;;;;;-2.21;63.28;101149.81;5084481;28;20177;-65
2022/01/12 10:59:17;;;;;;;22.40;12.93;;;;;;;-2.24;63.23;101158.41;5085162;28;20056;-65
2022/01/12 11:01:49;;;;;;;26.55;15.65;;;;;;;-2.19;63.13;101153.34;5085284;28;20044;-65
2022/01/12 11:04:22;;;;;;;25.92;13.98;;;;;;;-2.17;63.18;101154.25;5085503;28;20047;-65
2022/01/12 11:06:53;;;;;;;23.50;14.30;;;;;;;-2.11;62.89;101151.81;5084507;28;20098;-65
2022/01/12 11:09:24;;;;;;;21.20;15.38;;;;;;;-2.07;63.02;101158.84;5085071;28;20037;-65
2022/01/12 11:11:52;;;;;;;22.98;14.50;;;;;;;-2.00;62.70;101151.22;5084851;28;20209;-66
2022/01/12 11:14:23;;;;;;;23.60;15.20;;;;;;;-1.94;62.51;101154.81;5085355;28;20044;-65
2022/01/12 11:16:53;;;;;;;23.40;15.48;;;;;;;-1.98;62.46;101148.66;5084335;28;20037;-65
2022/01/12 11:19:23;;;;;;;20.50;12.60;;;;;;;-1.93;62.18;101154.84;5085268;28;20108;-65
2022/01/12 11:22:03;;;;;;;23.95;14.65;;;;;;;-1.91;62.04;101160.09;5085094;28;20044;-65
2022/01/12 11:24:37;;;;;;;21.20;13.35;;;;;;;-1.91;61.95;101158.38;5084970;28;20041;-65
2022/01/12 11:27:20;;;;;;;24.30;14.35;;;;;;;-1.83;61.80;101153.34;5084824;28;20040;-65
2022/01/12 11:29:52;;;;;;;23.92;15.30;;;;;;;-1.76;61.77;101139.66;5084677;28;20037;-65
2022/01/12 11:32:25;;;;;;;23.75;13.15;;;;;;;-1.70;61.63;101135.47;5084939;28;20041;-66
2022/01/12 11:35:01;;;;;;;21.27;13.77;;;;;;;-1.60;61.38;101179.88;5084781;28;20036;-66
2022/01/12 11:37:34;;;;;;;25.30;15.93;;;;;;;-1.72;61.15;101077.38;5084068;28;20041;-66
2022/01/12 11:40:11;;;;;;;20.80;13.57;;;;;;;-1.28;60.70;101125.97;5084103;28;20040;-66
2022/01/12 11:42:44;;;;;;;22.38;14.38;;;;;;;-1.39;60.47;101084.13;5084801;28;20253;-65
2022/01/12 11:45:20;;;;;;;24.63;14.52;;;;;;;-1.02;60.04;101129.97;5087718;28;20047;-66
2022/01/12 11:47:53;;;;;;;26.25;14.82;;;;;;;-0.81;59.95;101132.16;5088639;28;20182;-66
2022/01/12 11:50:25;;;;;;;21.85;11.57;;;;;;;-0.87;59.40;101079.97;5088694;28;20041;-66
2022/01/12 11:52:58;;;;;;;24.40;14.10;;;;;;;-0.42;58.87;101130.28;5088622;28;20040;-66
2022/01/12 11:55:38;;;;;;;20.73;13.15;;;;;;;-0.20;58.12;101118.50;5088445;28;20040;-66
2022/01/12 11:58:17;;;;;;;22.17;13.77;;;;;;;-0.12;57.53;101122.09;5088447;28;20040;-66
2022/01/12 12:00:49;;;;;;;21.13;13.55;;;;;;;-0.10;58.00;101117.78;5088660;28;20044;-65
2022/01/12 12:03:22;;;;;;;22.98;13.57;;;;;;;0.06;57.72;101107.59;5088422;28;20047;-66
2022/01/12 12:05:55;;;;;;;20.58;13.93;;;;;;;0.23;57.15;101114.81;5087926;28;20048;-65
2022/01/12 12:08:27;;;;;;;24.42;14.65;;;;;;;0.44;56.71;101114.25;5088101;28;20047;-65
2022/01/12 12:11:01;;;;;;;23.45;13.45;;;;;;;0.71;56.20;101102.41;5088574;28;20040;-65
2022/01/12 12:13:33;;;;;;;23.77;14.25;;;;;;;0.61;56.00;101046.63;5088481;28;20048;-65
2022/01/12 12:16:06;;;;;;;22.48;14.25;;;;;;;0.82;55.88;101091.25;5088205;28;20059;-65
2022/01/12 12:18:39;;;;;;;23.70;13.50;;;;;;;-0.29;55.85;100935.97;5087953;28;20045;-65
2022/01/12 12:21:12;;;;;;;21.10;14.18;;;;;;;0.72;56.01;101078.06;5088296;28;20055;-65
2022/01/12 12:23:44;;;;;;;22.48;14.93;;;;;;;0.72;56.17;101083.28;5087025;28;20040;-66
2022/01/12 12:26:20;;;;;;;23.85;15.65;;;;;;;0.69;56.47;101089.34;5087699;28;20036;-65
2022/01/12 12:28:54;;;;;;;22.25;13.75;;;;;;;0.68;56.29;101098.03;5087376;28;20041;-66
2022/01/12 12:31:29;;;;;;;23.80;15.17;;;;;;;0.68;56.55;101092.81;5087787;28;20295;-65
2022/01/12 12:34:06;;;;;;;23.65;13.30;;;;;;;0.83;55.99;101103.44;5087042;28;20041;-65
2022/01/12 12:36:38;;;;;;;20.65;13.57;;;;;;;0.91;56.05;101106.16;5087867;28;20040;-65
2022/01/12 12:39:13;;;;;;;21.40;13.02;;;;;;;0.92;55.79;101102.69;5087904;28;20041;-65
2022/01/12 12:41:47;;;;;;;22.60;14.35;;;;;;;0.83;55.61;101103.44;5087934;28;20208;-65
2022/01/12 12:44:21;;;;;;;23.58;15.65;;;;;;;0.77;56.28;101102.50;5087997;28;20040;-65
2022/01/12 12:47:07;;;;;;;23.40;16.00;;;;;;;0.68;55.07;101090.22;5087752;28;20059;-66